createdAt,value
2018-04-12T00:01:17.735Z,87.60
2018-04-12T00:03:46.181Z,87.60
2018-04-12T00:06:14.460Z,87.50
2018-04-12T00:08:43.476Z,87.50
2018-04-12T00:11:11.858Z,87.60
2018-04-12T00:13:40.869Z,87.60
2018-04-12T00:16:09.135Z,87.50
2018-04-12T00:18:37.400Z,87.80
2018-04-12T00:21:05.683Z,87.70
2018-04-12T00:23:33.965Z,87.80
2018-04-12T00:26:02.254Z,87.90
2018-04-12T00:28:31.271Z,88.00
2018-04-12T00:31:00.465Z,87.90
2018-04-12T00:33:29.510Z,87.90
2018-04-12T00:35:57.755Z,87.90
2018-04-12T00:38:26.079Z,87.70
2018-04-12T00:40:54.529Z,87.50
2018-04-12T00:43:23.739Z,87.00
2018-04-12T00:45:52.019Z,86.80
2018-04-12T00:48:20.310Z,86.80
2018-04-12T00:50:48.589Z,86.90
2018-04-12T00:53:28.476Z,86.80
2018-04-12T00:55:56.807Z,86.40
2018-04-12T00:58:25.089Z,86.40
2018-04-12T01:00:53.574Z,86.60
2018-04-12T01:03:21.852Z,86.60
2018-04-12T01:05:50.332Z,86.40
2018-04-12T01:08:18.707Z,86.20
2018-04-12T01:10:48.205Z,86.30
2018-04-12T01:13:17.401Z,85.80
2018-04-12T01:15:45.678Z,86.60
2018-04-12T01:18:13.940Z,85.70
2018-04-12T01:20:42.229Z,85.80
2018-04-12T01:23:10.508Z,85.50
2018-04-12T01:25:38.823Z,85.60
2018-04-12T01:28:07.149Z,85.90
2018-04-12T01:30:35.455Z,86.10
2018-04-12T01:33:15.667Z,86.20
2018-04-12T01:35:43.942Z,86.10
2018-04-12T01:38:12.248Z,86.20
2018-04-12T01:40:40.560Z,86.10
2018-04-12T01:43:08.915Z,85.80
2018-04-12T01:45:37.179Z,85.90
2018-04-12T01:48:06.599Z,86.00
2018-04-12T01:50:34.820Z,86.10
2018-04-12T01:53:03.059Z,86.20
2018-04-12T01:55:32.133Z,86.30
2018-04-12T01:58:00.948Z,86.20
2018-04-12T02:00:29.944Z,86.50
2018-04-12T02:02:58.247Z,86.50
2018-04-12T02:05:26.535Z,86.70
2018-04-12T02:07:54.841Z,86.50
2018-04-12T02:10:23.118Z,86.70
2018-04-12T02:12:52.859Z,86.70
2018-04-12T02:15:21.119Z,86.70
2018-04-12T02:17:50.190Z,86.60
2018-04-12T02:20:18.425Z,86.50
2018-04-12T02:22:46.735Z,86.20
2018-04-12T02:25:15.523Z,85.90
2018-04-12T02:27:43.820Z,86.10
2018-04-12T02:30:12.071Z,85.70
2018-04-12T02:32:40.353Z,85.80
2018-04-12T02:35:08.626Z,85.90
2018-04-12T02:37:36.848Z,85.80
2018-04-12T02:40:05.140Z,85.40
2018-04-12T02:42:34.475Z,86.10
2018-04-12T02:45:02.726Z,85.30
2018-04-12T02:47:31.016Z,85.40
2018-04-12T02:49:59.267Z,85.40
2018-04-12T02:52:27.555Z,85.60
2018-04-12T02:54:55.856Z,86.30
2018-04-12T02:57:24.083Z,86.60
2018-04-12T02:59:52.422Z,86.80
2018-04-12T03:02:20.698Z,87.00
2018-04-12T03:04:49.012Z,87.30
2018-04-12T03:07:17.260Z,87.20
2018-04-12T03:09:45.626Z,87.30
2018-04-12T03:12:13.920Z,87.50
2018-04-12T03:14:42.246Z,87.50
2018-04-12T03:17:10.499Z,87.90
2018-04-12T03:19:38.759Z,87.90
2018-04-12T03:22:07.790Z,88.40
2018-04-12T03:24:36.044Z,88.30
2018-04-12T03:27:04.347Z,88.60
2018-04-12T03:29:32.611Z,88.80
2018-04-12T03:32:00.856Z,89.10
2018-04-12T03:34:29.199Z,89.00
2018-04-12T03:36:58.253Z,89.10
2018-04-12T03:39:26.568Z,89.50
2018-04-12T03:41:56.332Z,89.60
2018-04-12T03:44:24.624Z,89.60
2018-04-12T03:46:52.883Z,89.70
2018-04-12T03:49:21.216Z,89.90
2018-04-12T03:51:49.448Z,90.00
2018-04-12T03:54:17.701Z,89.90
2018-04-12T03:56:45.948Z,90.10
2018-04-12T03:59:15.365Z,90.00
2018-04-12T04:01:44.472Z,90.10
2018-04-12T04:04:13.514Z,90.10
2018-04-12T04:06:41.809Z,90.20
2018-04-12T04:09:10.084Z,90.20
2018-04-12T04:11:38.336Z,90.20
2018-04-12T04:14:06.637Z,90.20
2018-04-12T04:16:47.810Z,90.30
2018-04-12T04:19:28.053Z,90.30
2018-04-12T04:21:56.346Z,90.40
2018-04-12T04:24:24.649Z,90.40
2018-04-12T04:26:53.726Z,90.40
2018-04-12T04:29:22.004Z,90.40
2018-04-12T04:31:50.281Z,90.20
2018-04-12T04:34:18.543Z,90.20
2018-04-12T04:36:47.833Z,90.30
2018-04-12T04:39:16.516Z,90.30
2018-04-12T04:41:44.804Z,90.10
2018-04-12T04:44:13.057Z,90.20
2018-04-12T04:46:41.875Z,90.20
2018-04-12T04:49:10.175Z,90.30
2018-04-12T04:51:39.153Z,90.40
2018-04-12T04:54:07.733Z,90.30
2018-04-12T04:56:36.072Z,90.30
2018-04-12T04:59:04.382Z,90.00
2018-04-12T05:01:32.650Z,89.90
2018-04-12T05:04:00.898Z,90.00
2018-04-12T05:06:29.647Z,90.00
2018-04-12T05:08:58.660Z,90.00
2018-04-12T05:11:26.966Z,90.00
2018-04-12T05:13:55.475Z,89.70
2018-04-12T05:16:23.781Z,89.80
2018-04-12T05:18:52.799Z,89.50
2018-04-12T05:21:24.869Z,89.40
2018-04-12T05:23:53.148Z,89.30
2018-04-12T05:26:21.390Z,89.30
2018-04-12T05:28:50.453Z,88.80
2018-04-12T05:31:18.755Z,88.80
2018-04-12T05:33:48.108Z,88.80
2018-04-12T05:36:16.379Z,88.20
2018-04-12T05:38:44.667Z,87.90
2018-04-12T05:41:13.809Z,87.50
2018-04-12T05:43:42.087Z,87.00
2018-04-12T05:46:11.142Z,85.20
2018-04-12T05:48:39.392Z,85.10
2018-04-12T05:51:07.837Z,83.20
2018-04-12T05:53:38.084Z,82.10
2018-04-12T05:56:06.373Z,82.10
2018-04-12T05:58:34.685Z,81.80
2018-04-12T06:01:04.389Z,80.90
2018-04-12T06:03:32.634Z,80.90
2018-04-12T06:06:00.909Z,80.30
2018-04-12T06:08:29.222Z,79.80
2018-04-12T06:10:57.499Z,78.50
2018-04-12T06:13:25.804Z,77.20
2018-04-12T06:15:55.320Z,74.00
2018-04-12T06:18:25.259Z,72.30
2018-04-12T06:20:53.546Z,72.20
2018-04-12T06:23:21.824Z,71.90
2018-04-12T06:25:50.101Z,71.10
2018-04-12T06:28:18.393Z,68.80
2018-04-12T06:30:46.668Z,69.20
2018-04-12T06:33:15.117Z,69.70
2018-04-12T06:35:43.575Z,69.40
2018-04-12T06:38:11.890Z,69.00
2018-04-12T06:40:40.172Z,68.30
2018-04-12T06:43:08.499Z,68.40
2018-04-12T06:45:37.596Z,68.10
2018-04-12T06:48:05.895Z,67.30
2018-04-12T06:50:35.305Z,66.10
2018-04-12T06:53:05.178Z,66.40
2018-04-12T06:55:34.244Z,65.10
2018-04-12T06:58:02.491Z,65.10
2018-04-12T07:00:30.761Z,64.00
2018-04-12T07:02:59.036Z,63.90
2018-04-12T07:05:27.348Z,63.20
2018-04-12T07:07:55.729Z,63.10
2018-04-12T07:10:23.999Z,61.10
2018-04-12T07:12:52.380Z,60.70
2018-04-12T07:15:20.761Z,60.60
2018-04-12T07:17:49.054Z,61.30
2018-04-12T07:20:17.307Z,62.90
2018-04-12T07:22:46.370Z,63.30
2018-04-12T07:25:14.685Z,63.10
2018-04-12T07:27:43.655Z,63.00
2018-04-12T07:30:13.102Z,65.10
2018-04-12T07:32:41.396Z,67.20
2018-04-12T07:35:09.733Z,68.40
2018-04-12T07:37:38.006Z,69.60
2018-04-12T07:40:06.285Z,72.10
2018-04-12T07:42:35.323Z,75.50
2018-04-12T07:45:03.614Z,74.90
2018-04-12T07:47:32.709Z,75.40
2018-04-12T07:50:01.002Z,75.60
2018-04-12T07:52:29.304Z,75.30
2018-04-12T07:54:57.561Z,75.90
2018-04-12T07:57:25.850Z,76.90
2018-04-12T07:59:54.153Z,77.30
2018-04-12T08:02:24.094Z,77.10
2018-04-12T08:04:52.348Z,77.00
2018-04-12T08:07:22.131Z,76.30
2018-04-12T08:09:51.969Z,75.30
2018-04-12T08:12:21.836Z,74.80
2018-04-12T08:14:51.027Z,74.80
2018-04-12T08:17:19.344Z,74.30
2018-04-12T08:19:47.664Z,74.50
2018-04-12T08:22:15.924Z,74.30
2018-04-12T08:24:44.231Z,73.30
2018-04-12T08:27:13.335Z,73.70
2018-04-12T08:29:43.132Z,73.40
2018-04-12T08:32:11.414Z,73.30
2018-04-12T08:34:40.864Z,72.20
2018-04-12T08:37:09.204Z,73.10
2018-04-12T08:39:37.612Z,73.20
2018-04-12T08:42:05.878Z,73.50
2018-04-12T08:44:34.182Z,74.00
2018-04-12T08:47:02.505Z,74.00
2018-04-12T08:49:30.919Z,73.40
2018-04-12T08:52:01.522Z,73.30
2018-04-12T08:54:29.799Z,73.30
2018-04-12T08:56:58.097Z,73.90
2018-04-12T08:59:26.396Z,73.80
2018-04-12T09:01:55.406Z,73.70
2018-04-12T09:04:23.703Z,73.70
2018-04-12T09:06:52.009Z,73.60
2018-04-12T09:09:21.205Z,72.80
2018-04-12T09:11:50.363Z,72.70
2018-04-12T09:14:19.778Z,71.70
2018-04-12T09:16:48.095Z,71.70
2018-04-12T09:19:19.247Z,71.90
2018-04-12T09:21:47.526Z,72.80
2018-04-12T09:24:16.551Z,73.20
2018-04-12T09:26:44.885Z,73.20
2018-04-12T09:29:13.277Z,72.60
2018-04-12T09:31:41.557Z,72.50
2018-04-12T09:34:10.613Z,72.90
2018-04-12T09:36:38.873Z,72.90
2018-04-12T09:39:07.191Z,72.70
2018-04-12T09:41:35.570Z,72.90
2018-04-12T09:44:03.834Z,72.60
2018-04-12T09:46:32.123Z,71.80
2018-04-12T09:49:00.444Z,72.20
2018-04-12T09:51:28.789Z,72.60
2018-04-12T09:53:57.831Z,72.20
2018-04-12T09:56:26.248Z,72.20
2018-04-12T09:58:54.506Z,72.00
2018-04-12T10:01:22.745Z,71.30
2018-04-12T10:03:52.204Z,71.30
2018-04-12T10:06:22.371Z,70.90
2018-04-12T10:08:56.330Z,70.50
2018-04-12T10:11:24.596Z,70.90
2018-04-12T10:13:52.875Z,71.40
2018-04-12T10:16:21.264Z,71.00
2018-04-12T10:18:50.414Z,71.90
2018-04-12T10:21:18.690Z,70.70
2018-04-12T10:23:48.125Z,70.50
2018-04-12T10:26:18.947Z,71.10
2018-04-12T10:28:48.028Z,71.10
2018-04-12T10:31:17.014Z,71.90
2018-04-12T10:33:46.600Z,71.80
2018-04-12T10:36:15.604Z,71.30
2018-04-12T10:38:43.897Z,71.30
2018-04-12T10:41:12.958Z,71.60
2018-04-12T10:43:42.066Z,71.70
2018-04-12T10:46:10.320Z,71.60
2018-04-12T10:48:39.370Z,71.10
2018-04-12T10:51:09.024Z,69.80
2018-04-12T10:53:37.294Z,69.30
2018-04-12T10:56:05.562Z,69.30
2018-04-12T10:58:34.654Z,67.50
2018-04-12T11:01:04.106Z,67.40
2018-04-12T11:03:33.311Z,67.50
2018-04-12T11:06:01.598Z,67.50
2018-04-12T11:08:29.897Z,67.80
2018-04-12T11:10:58.320Z,67.30
2018-04-12T11:13:26.569Z,66.80
2018-04-12T11:15:55.662Z,68.60
2018-04-12T11:18:23.985Z,68.60
2018-04-12T11:20:52.212Z,68.20
2018-04-12T11:23:23.147Z,68.90
2018-04-12T11:25:51.450Z,68.90
2018-04-12T11:28:19.831Z,69.00
2018-04-12T11:30:48.838Z,69.70
2018-04-12T11:33:17.103Z,69.70
2018-04-12T11:35:45.410Z,69.50
2018-04-12T11:38:13.718Z,69.00
2018-04-12T11:40:42.049Z,68.70
2018-04-12T11:43:14.044Z,69.20
2018-04-12T11:45:42.368Z,69.20
2018-04-12T11:48:12.367Z,69.80
2018-04-12T11:50:41.426Z,69.90
2018-04-12T11:53:10.504Z,69.80
2018-04-12T11:55:38.801Z,70.10
2018-04-12T11:58:07.160Z,70.40
2018-04-12T12:00:36.402Z,70.50
2018-04-12T12:03:07.569Z,69.70
2018-04-12T12:05:37.788Z,68.40
2018-04-12T12:08:06.120Z,67.70
2018-04-12T12:10:34.480Z,67.80
2018-04-12T12:13:02.740Z,68.60
2018-04-12T12:15:31.916Z,68.20
2018-04-12T12:18:00.974Z,68.20
2018-04-12T12:20:32.933Z,68.20
2018-04-12T12:23:01.249Z,67.80
2018-04-12T12:25:30.334Z,69.00
2018-04-12T12:27:59.354Z,69.50
2018-04-12T12:30:27.737Z,69.50
2018-04-12T12:32:56.141Z,69.70
2018-04-12T12:35:24.441Z,69.80
2018-04-12T12:37:53.209Z,70.30
2018-04-12T12:40:21.472Z,71.20
2018-04-12T12:43:08.318Z,71.10
2018-04-12T12:45:36.584Z,69.70
2018-04-12T12:48:04.934Z,70.20
2018-04-12T12:50:38.844Z,70.80
2018-04-12T12:53:26.276Z,70.00
2018-04-12T12:56:02.140Z,70.30
2018-04-12T12:58:31.747Z,70.30
2018-04-12T13:01:00.044Z,70.80
2018-04-12T13:03:29.596Z,71.30
2018-04-12T13:05:57.879Z,71.30
2018-04-12T13:08:26.181Z,71.20
2018-04-12T13:10:54.480Z,71.00
2018-04-12T13:13:22.798Z,70.80
2018-04-12T13:15:51.027Z,71.10
2018-04-12T13:18:19.281Z,71.50
2018-04-12T13:20:47.697Z,72.00
2018-04-12T13:23:27.577Z,72.20
2018-04-12T13:26:01.686Z,72.30
2018-04-12T13:28:36.110Z,72.30
2018-04-12T13:31:04.413Z,72.00
2018-04-12T13:33:39.430Z,72.00
2018-04-12T13:36:07.723Z,71.90
2018-04-12T13:38:48.590Z,71.70
2018-04-12T13:41:22.763Z,71.60
2018-04-12T13:43:57.942Z,71.80
2018-04-12T13:46:32.621Z,71.80
2018-04-12T13:49:01.720Z,71.60
2018-04-12T13:51:35.978Z,71.60
2018-04-12T13:54:10.310Z,71.60
2018-04-12T13:56:39.851Z,71.10
2018-04-12T13:59:15.221Z,71.30
2018-04-12T14:01:44.280Z,71.20
2018-04-12T14:04:12.522Z,71.20
2018-04-12T14:06:41.663Z,71.80
2018-04-12T14:09:22.672Z,71.60
2018-04-12T14:11:57.043Z,71.50
2018-04-12T14:14:25.298Z,71.70
2018-04-12T14:16:59.671Z,71.80
2018-04-12T14:19:34.637Z,71.60
2018-04-12T14:22:09.535Z,71.60
2018-04-12T14:24:37.840Z,71.90
2018-04-12T14:27:07.425Z,71.60
2018-04-12T14:29:35.772Z,71.80
2018-04-12T14:32:11.522Z,71.40
2018-04-12T14:34:45.727Z,71.50
2018-04-12T14:37:14.015Z,71.30
2018-04-12T14:39:43.059Z,71.60
2018-04-12T14:42:11.314Z,71.40
2018-04-12T14:44:45.678Z,71.90
2018-04-12T14:47:14.934Z,71.90
2018-04-12T14:49:43.168Z,72.10
2018-04-12T14:52:17.155Z,71.90
2018-04-12T14:54:51.479Z,71.60
2018-04-12T14:57:19.850Z,71.20
2018-04-12T14:59:53.826Z,71.30
2018-04-12T15:02:22.139Z,71.60
2018-04-12T15:04:50.450Z,71.70
2018-04-12T15:07:25.387Z,72.00
2018-04-12T15:09:54.527Z,72.10
2018-04-12T15:12:29.452Z,71.80
2018-04-12T15:15:04.421Z,71.80
2018-04-12T15:17:44.395Z,71.80
2018-04-12T15:20:19.364Z,71.70
2018-04-12T15:22:47.667Z,71.70
2018-04-12T15:25:21.757Z,71.90
2018-04-12T15:28:01.488Z,71.80
2018-04-12T15:30:30.632Z,72.40
2018-04-12T15:32:58.904Z,72.80
2018-04-12T15:35:27.211Z,72.90
2018-04-12T15:37:56.314Z,72.70
2018-04-12T15:40:31.272Z,72.50
2018-04-12T15:43:05.564Z,72.50
2018-04-12T15:45:40.959Z,71.40
2018-04-12T15:48:10.255Z,71.40
2018-04-12T15:50:44.400Z,71.70
2018-04-12T15:53:13.681Z,71.50
2018-04-12T15:55:47.667Z,71.40
2018-04-12T15:58:15.932Z,71.70
2018-04-12T16:00:44.200Z,72.10
2018-04-12T16:03:24.592Z,72.00
2018-04-12T16:05:58.734Z,72.10
2018-04-12T16:08:27.085Z,72.70
2018-04-12T16:11:01.420Z,72.90
2018-04-12T16:13:36.380Z,73.40
2018-04-12T16:16:05.442Z,73.60
2018-04-12T16:18:33.715Z,74.10
2018-04-12T16:21:13.897Z,74.40
2018-04-12T16:23:42.925Z,74.50
2018-04-12T16:26:16.982Z,74.40
2018-04-12T16:29:02.802Z,73.90
2018-04-12T16:31:31.852Z,73.60
2018-04-12T16:34:06.071Z,73.60
2018-04-12T16:36:52.119Z,74.40
2018-04-12T16:39:20.420Z,74.40
2018-04-12T16:41:54.503Z,74.80
2018-04-12T16:44:28.751Z,74.90
2018-04-12T16:46:57.134Z,75.00
2018-04-12T16:49:32.090Z,75.60
2018-04-12T16:52:00.399Z,75.50
2018-04-12T16:54:29.420Z,75.80
2018-04-12T16:56:57.728Z,75.80
2018-04-12T16:59:26.019Z,75.70
2018-04-12T17:01:54.297Z,75.50
2018-04-12T17:04:22.586Z,75.40
2018-04-12T17:06:51.598Z,76.00
2018-04-12T17:09:26.572Z,75.80
2018-04-12T17:12:06.497Z,75.80
2018-04-12T17:14:34.777Z,76.10
2018-04-12T17:17:08.612Z,76.20
2018-04-12T17:19:36.999Z,76.50
2018-04-12T17:22:10.877Z,76.60
2018-04-12T17:24:44.915Z,76.50
2018-04-12T17:27:13.207Z,77.00
2018-04-12T17:29:47.238Z,77.20
2018-04-12T17:32:21.632Z,77.60
2018-04-12T17:34:50.027Z,77.80
2018-04-12T17:37:25.107Z,78.00
2018-04-12T17:39:59.130Z,77.90
2018-04-12T17:42:33.153Z,78.20
2018-04-12T17:45:07.044Z,79.20
2018-04-12T17:47:35.322Z,78.60
2018-04-12T17:50:09.350Z,78.70
2018-04-12T17:52:37.640Z,78.50
2018-04-12T17:55:06.035Z,78.60
2018-04-12T17:57:40.316Z,78.80
2018-04-12T18:00:08.744Z,78.90
2018-04-12T18:02:37.800Z,79.40
2018-04-12T18:05:18.033Z,79.40
2018-04-12T18:07:46.787Z,79.60
2018-04-12T18:10:15.077Z,80.00
2018-04-12T18:12:43.431Z,80.20
2018-04-12T18:15:17.852Z,80.60
2018-04-12T18:17:46.892Z,80.90
2018-04-12T18:20:21.312Z,80.90
2018-04-12T18:22:55.143Z,81.00
2018-04-12T18:25:23.431Z,81.10
2018-04-12T18:27:52.511Z,81.50
2018-04-12T18:30:20.881Z,81.40
2018-04-12T18:32:55.154Z,81.40
2018-04-12T18:35:35.295Z,81.60
2018-04-12T18:38:04.397Z,81.90
2018-04-12T18:40:39.264Z,82.10
2018-04-12T18:43:07.582Z,82.10
2018-04-12T18:45:35.857Z,82.20
2018-04-12T18:48:04.165Z,82.20
2018-04-12T18:50:40.835Z,82.10
2018-04-12T18:53:09.155Z,82.00
2018-04-12T18:55:37.549Z,82.20
2018-04-12T18:58:06.416Z,82.10
2018-04-12T19:00:34.714Z,81.90
2018-04-12T19:03:03.003Z,81.80
2018-04-12T19:05:38.121Z,82.60
2018-04-12T19:08:06.453Z,82.00
2018-04-12T19:10:34.782Z,82.10
2018-04-12T19:13:08.796Z,82.30
2018-04-12T19:15:49.642Z,82.30
2018-04-12T19:18:17.921Z,82.40
2018-04-12T19:20:51.830Z,82.50
2018-04-12T19:23:20.124Z,82.50
2018-04-12T19:25:55.161Z,82.90
2018-04-12T19:28:23.544Z,82.70
2018-04-12T19:30:58.472Z,82.70
2018-04-12T19:33:27.576Z,82.20
2018-04-12T19:36:02.530Z,82.80
2018-04-12T19:38:30.915Z,82.70
2018-04-12T19:41:00.288Z,82.70
2018-04-12T19:43:34.635Z,82.50
2018-04-12T19:46:09.004Z,82.60
2018-04-12T19:48:37.337Z,82.40
2018-04-12T19:51:11.213Z,82.50
2018-04-12T19:53:40.295Z,82.60
2018-04-12T19:56:08.771Z,82.50
2018-04-12T19:58:43.008Z,82.60
2018-04-12T20:01:12.087Z,82.80
2018-04-12T20:03:40.377Z,82.80
2018-04-12T20:06:10.426Z,83.10
2018-04-12T20:08:50.302Z,83.00
2018-04-12T20:11:24.442Z,83.20
2018-04-12T20:13:54.056Z,83.20
2018-04-12T20:16:28.149Z,83.20
2018-04-12T20:19:02.155Z,83.10
2018-04-12T20:21:36.139Z,83.10
2018-04-12T20:24:10.192Z,83.20
2018-04-12T20:26:44.394Z,83.20
2018-04-12T20:29:12.738Z,83.40
2018-04-12T20:31:41.079Z,83.60
2018-04-12T20:34:16.128Z,83.50
2018-04-12T20:36:50.298Z,83.50
2018-04-12T20:39:25.347Z,83.50
2018-04-12T20:41:59.342Z,83.50
2018-04-12T20:44:27.661Z,83.40
2018-04-12T20:46:56.743Z,83.60
2018-04-12T20:49:31.591Z,83.50
2018-04-12T20:52:00.681Z,83.50
2018-04-12T20:54:40.667Z,83.50
2018-04-12T20:57:09.054Z,83.50
2018-04-12T20:59:37.359Z,83.40
2018-04-12T21:02:05.626Z,83.30
2018-04-12T21:04:39.994Z,83.40
2018-04-12T21:07:08.363Z,83.50
2018-04-12T21:09:37.542Z,83.30
2018-04-12T21:12:05.850Z,83.20
2018-04-12T21:14:34.132Z,83.10
2018-04-12T21:17:08.393Z,83.00
2018-04-12T21:19:42.234Z,82.90
2018-04-12T21:22:16.450Z,83.10
2018-04-12T21:24:45.529Z,83.20
2018-04-12T21:27:14.571Z,83.50
2018-04-12T21:29:48.490Z,83.50
2018-04-12T21:32:17.548Z,83.60
2018-04-12T21:34:47.504Z,83.60
2018-04-12T21:37:15.786Z,83.60
2018-04-12T21:39:44.029Z,83.90
2018-04-12T21:42:12.307Z,84.00
2018-04-12T21:44:40.584Z,84.20
2018-04-12T21:47:08.885Z,84.20
2018-04-12T21:49:37.196Z,84.40
2018-04-12T21:52:05.479Z,84.30
2018-04-12T21:54:40.079Z,84.40
2018-04-12T21:57:09.580Z,84.50
2018-04-12T21:59:43.847Z,84.60
2018-04-12T22:02:24.503Z,84.60
2018-04-12T22:04:54.937Z,84.70
2018-04-12T22:07:25.235Z,84.90
2018-04-12T22:09:59.536Z,84.80
2018-04-12T22:12:33.629Z,84.80
2018-04-12T22:15:01.928Z,84.80
2018-04-12T22:17:30.245Z,84.90
2018-04-12T22:19:58.988Z,85.00
2018-04-12T22:22:27.265Z,85.00
2018-04-12T22:25:01.527Z,85.00
2018-04-12T22:27:29.806Z,85.10
2018-04-12T22:29:58.092Z,85.00
2018-04-12T22:32:26.367Z,85.00
2018-04-12T22:34:54.657Z,85.10
2018-04-12T22:37:34.726Z,85.10
2018-04-12T22:40:03.023Z,85.10
2018-04-12T22:42:31.269Z,84.90
2018-04-12T22:44:59.532Z,85.80
2018-04-12T22:47:28.023Z,85.20
2018-04-12T22:49:56.321Z,85.10
2018-04-12T22:52:24.597Z,85.00
2018-04-12T22:54:52.865Z,85.00
2018-04-12T22:57:21.133Z,84.80
2018-04-12T22:59:56.065Z,84.70
2018-04-12T23:02:30.321Z,84.80
2018-04-12T23:05:05.405Z,85.20
2018-04-12T23:07:33.792Z,85.10
2018-04-12T23:10:08.033Z,85.30
2018-04-12T23:12:36.273Z,85.40
2018-04-12T23:15:04.547Z,85.40
2018-04-12T23:17:38.594Z,85.50
2018-04-12T23:20:06.878Z,85.50
2018-04-12T23:22:35.156Z,85.40
2018-04-12T23:25:05.101Z,85.70
2018-04-12T23:27:34.130Z,85.60
2018-04-12T23:30:14.428Z,85.50
2018-04-12T23:32:43.729Z,85.60
2018-04-12T23:35:23.904Z,85.50
2018-04-12T23:37:58.129Z,85.30
2018-04-12T23:40:26.431Z,85.40
2018-04-12T23:42:54.701Z,85.40
2018-04-12T23:45:22.977Z,85.40
2018-04-12T23:47:51.268Z,85.40
2018-04-12T23:50:25.500Z,85.50
2018-04-12T23:52:54.575Z,85.40
2018-04-12T23:55:34.553Z,85.30
2018-04-12T23:58:08.841Z,85.40
